createdAt,value
2019-05-26T00:01:12.385Z,16.59
2019-05-26T00:03:44.170Z,16.55
2019-05-26T00:06:16.344Z,16.48
2019-05-26T00:08:48.809Z,16.41
2019-05-26T00:11:21.138Z,16.30
2019-05-26T00:13:53.405Z,16.23
2019-05-26T00:16:25.052Z,16.17
2019-05-26T00:18:57.065Z,16.13
2019-05-26T00:21:29.234Z,16.03
2019-05-26T00:24:01.604Z,15.88
2019-05-26T00:26:34.083Z,15.92
2019-05-26T00:29:05.846Z,15.96
2019-05-26T00:31:38.336Z,15.94
2019-05-26T00:34:10.353Z,15.94
2019-05-26T00:36:41.826Z,15.91
2019-05-26T00:39:13.937Z,15.90
2019-05-26T00:41:45.904Z,15.89
2019-05-26T00:44:17.944Z,15.87
2019-05-26T00:46:50.390Z,15.88
2019-05-26T00:49:22.019Z,15.90
2019-05-26T00:51:54.633Z,15.85
2019-05-26T00:54:27.047Z,15.90
2019-05-26T00:56:59.006Z,15.92
2019-05-26T00:59:32.759Z,15.93
2019-05-26T01:02:06.661Z,15.90
2019-05-26T01:04:39.253Z,15.88
2019-05-26T01:07:11.599Z,15.88
2019-05-26T01:11:21.963Z,15.86
2019-05-26T01:12:23.219Z,15.86
2019-05-26T01:14:55.390Z,15.89
2019-05-26T01:17:27.710Z,15.92
2019-05-26T01:20:00.085Z,15.92
2019-05-26T01:22:31.440Z,15.95
2019-05-26T01:25:03.505Z,15.91
2019-05-26T01:27:35.514Z,15.88
2019-05-26T01:30:09.054Z,15.86
2019-05-26T01:32:41.228Z,15.82
2019-05-26T01:35:12.938Z,15.79
2019-05-26T01:37:45.948Z,15.77
2019-05-26T01:40:20.876Z,15.75
2019-05-26T01:42:52.571Z,15.74
2019-05-26T01:45:25.016Z,15.71
2019-05-26T01:47:57.339Z,15.66
2019-05-26T01:50:29.727Z,15.62
2019-05-26T01:53:01.888Z,15.57
2019-05-26T01:55:33.592Z,15.52
2019-05-26T01:58:06.295Z,15.50
2019-05-26T02:00:39.673Z,15.47
2019-05-26T02:03:12.176Z,15.45
2019-05-26T02:05:44.443Z,15.43
2019-05-26T02:08:16.137Z,15.47
2019-05-26T02:10:48.534Z,15.45
2019-05-26T02:13:20.706Z,15.43
2019-05-26T02:15:52.401Z,15.38
2019-05-26T02:18:24.895Z,15.37
2019-05-26T02:20:56.436Z,15.35
2019-05-26T02:23:28.535Z,15.39
2019-05-26T02:26:00.954Z,15.41
2019-05-26T02:28:32.437Z,15.38
2019-05-26T02:31:04.929Z,15.38
2019-05-26T02:33:36.945Z,15.38
2019-05-26T02:36:09.242Z,15.39
2019-05-26T02:38:59.902Z,15.42
2019-05-26T02:41:18.656Z,15.45
2019-05-26T02:43:54.283Z,15.46
2019-05-26T02:46:27.874Z,15.49
2019-05-26T02:48:59.624Z,15.54
2019-05-26T02:51:32.073Z,15.56
2019-05-26T02:54:04.528Z,15.56
2019-05-26T02:56:36.518Z,15.52
2019-05-26T02:59:20.453Z,15.52
2019-05-26T03:02:03.113Z,15.53
2019-05-26T03:04:26.609Z,15.59
2019-05-26T03:06:58.895Z,15.65
2019-05-26T03:09:33.922Z,15.66
2019-05-26T03:12:06.853Z,15.72
2019-05-26T03:14:41.621Z,15.75
2019-05-26T03:17:15.598Z,15.79
2019-05-26T03:19:51.549Z,15.83
2019-05-26T03:22:26.462Z,15.87
2019-05-26T03:25:34.541Z,15.94
2019-05-26T03:28:07.218Z,16.01
2019-05-26T03:30:39.526Z,16.09
2019-05-26T03:33:12.031Z,16.17
2019-05-26T03:35:44.599Z,16.23
2019-05-26T03:38:17.049Z,16.26
2019-05-26T03:40:49.335Z,16.31
2019-05-26T03:43:20.979Z,16.41
2019-05-26T03:46:20.229Z,16.44
2019-05-26T03:48:52.353Z,16.44
2019-05-26T03:51:27.117Z,16.25
2019-05-26T03:53:59.559Z,16.22
2019-05-26T03:56:32.054Z,16.38
2019-05-26T03:59:06.106Z,16.40
2019-05-26T04:01:38.270Z,16.45
2019-05-26T04:04:12.499Z,16.40
2019-05-26T04:06:44.952Z,16.50
2019-05-26T04:09:16.974Z,16.58
2019-05-26T04:11:48.472Z,16.74
2019-05-26T04:14:20.972Z,16.80
2019-05-26T04:16:56.372Z,16.87
2019-05-26T04:19:28.039Z,16.83
2019-05-26T04:22:00.401Z,16.98
2019-05-26T04:24:31.969Z,17.10
2019-05-26T04:27:04.717Z,17.18
2019-05-26T04:29:37.062Z,17.22
2019-05-26T04:32:09.659Z,17.26
2019-05-26T04:34:43.812Z,17.21
2019-05-26T04:37:21.103Z,17.18
2019-05-26T04:39:53.300Z,17.37
2019-05-26T04:42:25.947Z,17.60
2019-05-26T04:44:59.449Z,17.76
2019-05-26T04:47:35.038Z,17.86
2019-05-26T04:50:12.412Z,17.96
2019-05-26T04:53:04.351Z,18.13
2019-05-26T04:55:23.890Z,18.26
2019-05-26T04:58:29.584Z,18.44
2019-05-26T05:01:00.420Z,18.55
2019-05-26T05:03:33.090Z,18.77
2019-05-26T05:06:04.641Z,18.92
2019-05-26T05:08:37.081Z,19.10
2019-05-26T05:11:09.469Z,19.36
2019-05-26T05:13:42.251Z,19.52
2019-05-26T05:16:16.994Z,19.70
2019-05-26T05:18:48.652Z,19.97
2019-05-26T05:21:21.243Z,20.21
2019-05-26T05:23:54.026Z,20.33
2019-05-26T05:26:25.707Z,20.51
2019-05-26T05:28:58.384Z,20.74
2019-05-26T05:31:30.805Z,20.65
2019-05-26T05:34:03.036Z,20.95
2019-05-26T05:36:35.558Z,20.46
2019-05-26T05:39:10.084Z,20.90
2019-05-26T05:41:42.399Z,21.13
2019-05-26T05:44:18.426Z,20.99
2019-05-26T05:46:50.220Z,21.28
2019-05-26T05:49:22.656Z,21.52
2019-05-26T05:51:54.812Z,21.38
2019-05-26T05:54:27.389Z,21.89
2019-05-26T05:56:59.672Z,22.24
2019-05-26T05:59:31.622Z,22.40
2019-05-26T06:02:10.800Z,22.91
2019-05-26T06:04:46.970Z,23.13
2019-05-26T06:07:21.315Z,23.56
2019-05-26T06:09:53.535Z,23.52
2019-05-26T06:12:25.409Z,23.77
2019-05-26T06:15:13.378Z,23.95
2019-05-26T06:17:58.008Z,23.68
2019-05-26T06:20:29.932Z,23.76
2019-05-26T06:23:02.801Z,23.97
2019-05-26T06:25:39.791Z,24.31
2019-05-26T06:28:11.577Z,24.05
2019-05-26T06:30:44.541Z,24.33
2019-05-26T06:33:17.847Z,24.46
2019-05-26T06:35:50.217Z,24.15
2019-05-26T06:38:25.494Z,24.44
2019-05-26T06:40:59.670Z,24.97
2019-05-26T06:43:31.979Z,23.71
2019-05-26T06:46:04.414Z,24.19
2019-05-26T06:48:36.653Z,24.93
2019-05-26T06:51:09.166Z,25.32
2019-05-26T06:53:40.921Z,25.09
2019-05-26T06:56:17.793Z,25.02
2019-05-26T06:58:49.423Z,25.60
2019-05-26T07:01:21.170Z,26.02
2019-05-26T07:03:53.575Z,25.58
2019-05-26T07:06:26.265Z,25.84
2019-05-26T07:09:02.500Z,26.13
2019-05-26T07:11:52.082Z,26.16
2019-05-26T07:14:12.010Z,26.52
2019-05-26T07:16:44.962Z,26.28
2019-05-26T07:19:18.720Z,26.42
2019-05-26T07:21:52.200Z,26.16
2019-05-26T07:24:24.290Z,26.47
2019-05-26T07:27:00.231Z,25.68
2019-05-26T07:29:32.779Z,25.72
2019-05-26T07:32:05.264Z,26.20
2019-05-26T07:34:37.018Z,26.36
2019-05-26T07:37:09.305Z,27.29
2019-05-26T07:39:41.644Z,27.11
2019-05-26T07:42:13.870Z,27.37
2019-05-26T07:44:46.098Z,27.46
2019-05-26T07:47:17.763Z,26.33
2019-05-26T07:49:49.828Z,26.80
2019-05-26T07:52:22.349Z,27.21
2019-05-26T07:54:54.912Z,27.44
2019-05-26T07:57:27.684Z,26.47
2019-05-26T08:00:00.984Z,26.19
2019-05-26T08:02:33.322Z,25.90
2019-05-26T08:05:08.671Z,26.78
2019-05-26T08:07:44.723Z,26.75
2019-05-26T08:11:20.053Z,26.81
2019-05-26T08:13:52.286Z,27.22
2019-05-26T08:16:23.768Z,26.37
2019-05-26T08:18:56.105Z,25.93
2019-05-26T08:21:28.450Z,25.65
2019-05-26T08:23:59.855Z,26.09
2019-05-26T08:26:33.221Z,27.50
2019-05-26T08:29:05.681Z,27.66
2019-05-26T08:31:37.719Z,27.03
2019-05-26T08:34:11.405Z,26.53
2019-05-26T08:36:42.932Z,26.99
2019-05-26T08:39:15.408Z,26.32
2019-05-26T08:41:47.805Z,25.20
2019-05-26T08:44:19.741Z,24.91
2019-05-26T08:46:52.076Z,24.99
2019-05-26T08:49:23.628Z,26.29
2019-05-26T08:51:55.905Z,27.08
2019-05-26T08:54:28.312Z,27.02
2019-05-26T08:57:00.588Z,26.31
2019-05-26T08:59:32.911Z,25.67
2019-05-26T09:02:04.681Z,26.37
2019-05-26T09:04:36.990Z,25.55
2019-05-26T09:07:09.550Z,25.88
2019-05-26T09:09:46.336Z,26.20
2019-05-26T09:12:19.009Z,26.17
2019-05-26T09:14:51.594Z,25.71
2019-05-26T09:17:24.213Z,25.38
2019-05-26T09:19:56.892Z,25.66
2019-05-26T09:22:28.617Z,26.40
2019-05-26T09:25:01.394Z,26.56
2019-05-26T09:27:34.508Z,25.97
2019-05-26T09:30:09.313Z,25.79
2019-05-26T09:32:44.343Z,26.37
2019-05-26T09:35:16.818Z,27.15
2019-05-26T09:37:49.394Z,27.40
2019-05-26T09:40:23.546Z,27.37
2019-05-26T09:42:55.375Z,27.39
2019-05-26T09:45:27.937Z,27.33
2019-05-26T09:48:00.031Z,27.71
2019-05-26T09:50:32.957Z,26.54
2019-05-26T09:53:25.558Z,25.73
2019-05-26T09:55:59.615Z,25.95
2019-05-26T09:58:32.397Z,25.39
2019-05-26T10:01:05.220Z,25.42
2019-05-26T10:03:40.186Z,24.91
2019-05-26T10:06:12.971Z,25.22
2019-05-26T10:08:50.579Z,26.25
2019-05-26T10:11:30.844Z,27.13
2019-05-26T10:14:13.877Z,27.02
2019-05-26T10:16:51.685Z,27.23
2019-05-26T10:19:24.972Z,27.72
2019-05-26T10:22:05.884Z,27.98
2019-05-26T10:24:45.921Z,27.40
2019-05-26T10:27:21.660Z,27.19
2019-05-26T10:30:05.867Z,27.42
2019-05-26T10:32:48.614Z,27.14
2019-05-26T10:35:37.672Z,27.06
2019-05-26T10:38:17.685Z,26.47
2019-05-26T10:40:53.979Z,25.94
2019-05-26T10:43:51.062Z,26.70
2019-05-26T10:46:34.184Z,25.98
2019-05-26T10:49:16.479Z,25.87
2019-05-26T10:51:51.469Z,25.33
2019-05-26T10:54:30.939Z,24.87
2019-05-26T10:57:09.042Z,24.54
2019-05-26T10:59:43.153Z,24.79
2019-05-26T11:02:15.912Z,25.57
2019-05-26T11:04:53.957Z,25.91
2019-05-26T11:07:31.008Z,26.18
2019-05-26T11:10:10.208Z,26.56
2019-05-26T11:12:54.835Z,26.10
2019-05-26T11:16:06.530Z,25.58
2019-05-26T11:18:42.906Z,25.44
2019-05-26T11:21:21.198Z,26.63
2019-05-26T11:24:23.432Z,27.01
2019-05-26T11:27:11.139Z,26.62
2019-05-26T11:30:01.812Z,25.81
2019-05-26T11:33:13.888Z,25.17
2019-05-26T11:35:51.407Z,24.74
2019-05-26T11:38:23.960Z,24.98
2019-05-26T11:41:31.867Z,24.68
2019-05-26T11:45:53.444Z,24.88
2019-05-26T11:54:13.210Z,26.27
2019-05-26T11:56:50.610Z,26.25
2019-05-26T11:59:47.972Z,26.00
2019-05-26T12:06:07.131Z,25.56
2019-05-26T12:08:40.338Z,25.78
2019-05-26T12:11:13.010Z,25.65
2019-05-26T12:24:47.354Z,25.78
2019-05-26T12:27:23.531Z,26.26
2019-05-26T12:30:17.029Z,25.90
2019-05-26T12:32:50.486Z,26.28
2019-05-26T12:35:24.903Z,26.30
2019-05-26T12:38:27.968Z,26.63
2019-05-26T12:41:07.638Z,26.17
2019-05-26T12:47:04.596Z,25.64
2019-05-26T12:49:54.511Z,25.57
2019-05-26T12:53:12.364Z,25.04
2019-05-26T12:56:24.563Z,25.09
2019-05-26T13:00:19.865Z,25.24
2019-05-26T13:03:34.435Z,25.22
2019-05-26T13:16:44.671Z,23.76
2019-05-26T13:19:24.690Z,23.57
2019-05-26T13:22:10.098Z,23.64
2019-05-26T13:25:10.752Z,23.69
2019-05-26T13:30:00.207Z,23.72
2019-05-26T13:30:45.195Z,23.62
2019-05-26T13:33:21.702Z,23.43
2019-05-26T13:35:58.977Z,23.61
2019-05-26T13:38:48.873Z,23.74
2019-05-26T13:41:48.587Z,23.36
2019-05-26T13:44:31.501Z,23.30
2019-05-26T13:54:45.369Z,22.99
2019-05-26T13:57:42.729Z,22.52
2019-05-26T14:04:37.689Z,22.65
2019-05-26T14:10:30.379Z,22.45
2019-05-26T14:13:37.996Z,22.33
2019-05-26T14:20:18.521Z,22.13
2019-05-26T14:23:20.255Z,22.08
2019-05-26T14:25:55.655Z,21.94
2019-05-26T14:28:31.124Z,21.75
2019-05-26T15:14:45.810Z,21.56
2019-05-26T15:20:58.721Z,21.47
2019-05-26T15:23:32.520Z,21.40
2019-05-26T15:26:16.779Z,21.42
2019-05-26T15:29:16.190Z,21.30
2019-05-26T15:32:22.108Z,21.27
2019-05-26T15:35:20.410Z,21.22
2019-05-26T15:41:12.768Z,21.02
2019-05-26T15:43:52.295Z,20.92
2019-05-26T15:46:37.569Z,20.95
2019-05-26T15:49:10.385Z,20.97
2019-05-26T15:51:42.621Z,20.88
2019-05-26T15:54:23.102Z,20.66
2019-05-26T15:57:11.924Z,20.92
2019-05-26T15:59:59.180Z,20.93
2019-05-26T16:02:44.868Z,20.89
2019-05-26T16:09:19.392Z,20.89
2019-05-26T16:11:55.480Z,20.86
2019-05-26T16:14:28.007Z,20.81
2019-05-26T16:17:00.661Z,20.75
2019-05-26T16:22:13.459Z,20.36
2019-05-26T16:24:45.296Z,20.36
2019-05-26T16:27:20.006Z,20.29
2019-05-26T16:29:52.829Z,20.24
2019-05-26T16:32:24.765Z,20.22
2019-05-26T16:34:58.663Z,20.10
2019-05-26T16:37:33.628Z,20.03
2019-05-26T16:40:09.295Z,20.02
2019-05-26T16:42:43.579Z,19.99
2019-05-26T16:45:16.517Z,20.06
2019-05-26T16:47:48.939Z,19.98
2019-05-26T16:50:23.660Z,20.00
2019-05-26T16:53:06.278Z,20.09
2019-05-26T16:55:42.902Z,20.08
2019-05-26T16:58:18.535Z,20.09
2019-05-26T17:00:54.124Z,19.94
2019-05-26T17:03:41.957Z,19.85
2019-05-26T17:06:23.254Z,19.86
2019-05-26T17:09:03.877Z,19.77
2019-05-26T17:11:40.618Z,19.88
2019-05-26T17:14:12.316Z,19.84
2019-05-26T17:16:44.615Z,19.79
2019-05-26T17:19:16.849Z,19.80
2019-05-26T17:21:58.571Z,19.78
2019-05-26T17:24:31.175Z,19.80
2019-05-26T17:27:40.766Z,19.76
2019-05-26T17:30:12.959Z,19.67
2019-05-26T17:32:51.731Z,19.58
2019-05-26T17:35:41.061Z,19.51
2019-05-26T17:38:44.449Z,19.50
2019-05-26T17:41:19.914Z,19.55
2019-05-26T17:44:06.838Z,19.46
2019-05-26T17:47:30.220Z,19.46
2019-05-26T17:50:07.569Z,19.37
2019-05-26T17:52:45.143Z,19.34
2019-05-26T17:55:21.219Z,19.30
2019-05-26T17:57:59.506Z,19.22
2019-05-26T18:00:32.233Z,19.10
2019-05-26T18:03:12.703Z,19.06
2019-05-26T18:05:44.904Z,19.04
2019-05-26T18:08:20.292Z,19.07
2019-05-26T18:11:00.403Z,18.99
2019-05-26T18:13:33.000Z,18.95
2019-05-26T18:16:15.070Z,18.88
2019-05-26T18:18:47.310Z,18.78
2019-05-26T18:21:24.576Z,18.82
2019-05-26T18:23:59.244Z,18.78
2019-05-26T18:29:31.794Z,18.72
2019-05-26T18:32:08.687Z,18.62
2019-05-26T18:37:52.828Z,18.47
2019-05-26T18:40:35.475Z,18.48
2019-05-26T18:43:18.139Z,18.46
2019-05-26T18:45:51.923Z,18.47
2019-05-26T18:48:24.397Z,18.46
2019-05-26T18:50:58.769Z,18.37
2019-05-26T18:53:31.356Z,18.37
2019-05-26T18:56:27.701Z,18.40
2019-05-26T18:59:42.383Z,18.39
2019-05-26T19:05:56.669Z,18.28
2019-05-26T19:17:04.880Z,18.23
2019-05-26T19:19:45.303Z,18.24
2019-05-26T19:37:00.760Z,18.26
2019-05-26T19:39:50.955Z,18.31
2019-05-26T19:46:53.109Z,18.18
2019-05-26T19:49:51.457Z,18.10
2019-05-26T19:52:25.481Z,18.04
2019-05-26T20:01:16.067Z,17.95
2019-05-26T20:02:18.747Z,17.87
2019-05-26T20:05:13.174Z,17.83
2019-05-26T20:12:00.731Z,17.77
2019-05-26T20:14:33.527Z,17.69
2019-05-26T20:17:09.156Z,17.62
2019-05-26T20:19:41.997Z,17.47
2019-05-26T20:22:14.614Z,17.42
2019-05-26T20:24:46.270Z,17.38
2019-05-26T20:27:18.703Z,17.35
2019-05-26T20:29:50.982Z,17.30
2019-05-26T20:32:29.182Z,17.27
2019-05-26T20:35:01.645Z,17.22
2019-05-26T20:37:33.451Z,17.15
2019-05-26T20:40:06.208Z,17.11
2019-05-26T20:42:38.771Z,17.09
2019-05-26T20:45:11.053Z,17.07
2019-05-26T20:47:43.278Z,17.02
2019-05-26T20:50:28.597Z,16.96
2019-05-26T20:52:50.357Z,16.97
2019-05-26T20:55:23.084Z,16.98
2019-05-26T20:59:05.820Z,16.95
2019-05-26T21:01:39.871Z,16.80
2019-05-26T21:05:15.221Z,16.83
2019-05-26T21:07:48.352Z,16.81
2019-05-26T21:10:27.772Z,16.76
2019-05-26T21:13:08.060Z,16.76
2019-05-26T21:15:47.291Z,16.75
2019-05-26T21:18:50.074Z,16.71
2019-05-26T21:21:25.659Z,16.66
2019-05-26T21:23:58.401Z,16.51
2019-05-26T21:26:30.198Z,16.54
2019-05-26T21:29:02.949Z,16.52
2019-05-26T21:31:35.529Z,16.54
2019-05-26T21:34:12.813Z,16.54
2019-05-26T21:36:44.278Z,16.55
2019-05-26T21:39:16.316Z,16.56
2019-05-26T21:41:48.886Z,16.50
2019-05-26T21:44:21.166Z,16.43
2019-05-26T21:46:53.668Z,16.39
2019-05-26T21:49:28.473Z,16.32
2019-05-26T21:52:00.995Z,16.32
2019-05-26T21:54:35.724Z,16.32
2019-05-26T21:57:08.395Z,16.30
2019-05-26T21:59:40.237Z,16.23
2019-05-26T22:02:12.918Z,16.24
2019-05-26T22:04:59.008Z,16.24
